createdAt,value
2018-10-17T00:04:25.225Z,14.06
2018-10-17T00:09:29.792Z,13.96
2018-10-17T00:14:34.671Z,13.96
2018-10-17T00:19:39.236Z,13.99
2018-10-17T00:24:43.668Z,14.06
2018-10-17T00:29:48.406Z,14.05
2018-10-17T00:34:53.092Z,14.02
2018-10-17T00:39:57.758Z,13.97
2018-10-17T00:45:02.684Z,13.96
2018-10-17T00:50:07.341Z,13.91
2018-10-17T00:55:12.510Z,13.94
2018-10-17T01:00:16.845Z,13.93
2018-10-17T01:05:21.205Z,13.97
2018-10-17T01:10:25.512Z,14.01
2018-10-17T01:15:30.256Z,13.95
2018-10-17T01:20:34.951Z,14.01
2018-10-17T01:25:39.383Z,13.95
2018-10-17T01:30:43.799Z,13.80
2018-10-17T01:35:48.133Z,13.61
2018-10-17T01:40:52.564Z,13.40
2018-10-17T01:45:57.517Z,13.32
2018-10-17T01:51:02.013Z,13.29
2018-10-17T01:56:07.065Z,13.22
2018-10-17T02:01:12.327Z,13.12
2018-10-17T02:06:16.622Z,13.12
2018-10-17T02:11:21.032Z,13.15
2018-10-17T02:16:25.807Z,13.10
2018-10-17T02:21:30.709Z,13.14
2018-10-17T02:26:36.352Z,13.07
2018-10-17T02:31:41.008Z,12.93
2018-10-17T02:36:45.646Z,12.93
2018-10-17T02:41:55.482Z,13.04
2018-10-17T02:47:00.102Z,13.08
2018-10-17T02:52:04.725Z,13.11
2018-10-17T02:57:09.972Z,13.01
2018-10-17T03:02:14.657Z,13.03
2018-10-17T03:07:19.506Z,13.07
2018-10-17T03:12:24.376Z,13.11
2018-10-17T03:17:28.941Z,13.16
2018-10-17T03:22:33.891Z,13.22
2018-10-17T03:27:38.233Z,13.13
2018-10-17T03:32:42.613Z,13.07
2018-10-17T03:37:47.900Z,12.79
2018-10-17T03:42:52.976Z,12.77
2018-10-17T03:47:57.729Z,12.66
2018-10-17T03:53:15.652Z,12.60
2018-10-17T03:58:20.015Z,12.78
2018-10-17T04:03:24.513Z,12.85
2018-10-17T04:08:29.528Z,12.90
2018-10-17T04:13:34.694Z,12.92
2018-10-17T04:18:39.266Z,12.93
2018-10-17T04:23:43.669Z,13.05
2018-10-17T04:28:48.440Z,13.06
2018-10-17T04:33:52.695Z,12.96
2018-10-17T04:38:57.844Z,13.01
2018-10-17T04:44:02.159Z,13.02
2018-10-17T04:49:08.213Z,12.97
2018-10-17T04:54:13.980Z,12.85
2018-10-17T04:59:18.548Z,12.86
2018-10-17T05:04:23.377Z,12.79
2018-10-17T05:09:27.642Z,12.76
2018-10-17T05:14:32.191Z,12.60
2018-10-17T05:19:36.569Z,12.68
2018-10-17T05:24:41.142Z,12.74
2018-10-17T05:29:46.083Z,12.81
2018-10-17T05:34:50.965Z,12.65
2018-10-17T05:39:55.476Z,12.74
2018-10-17T05:44:59.874Z,12.73
2018-10-17T05:50:04.634Z,12.59
2018-10-17T05:55:09.395Z,12.47
2018-10-17T06:00:14.598Z,12.36
2018-10-17T06:05:19.119Z,12.28
2018-10-17T06:10:24.000Z,12.14
2018-10-17T06:15:28.003Z,12.20
2018-10-17T06:20:32.862Z,12.27
2018-10-17T06:25:37.697Z,12.24
2018-10-17T06:30:42.018Z,12.16
2018-10-17T06:35:46.702Z,12.23
2018-10-17T06:40:50.984Z,12.23
2018-10-17T06:45:55.695Z,12.42
2018-10-17T06:51:00.394Z,12.37
2018-10-17T06:56:05.804Z,12.43
2018-10-17T07:01:10.291Z,12.43
2018-10-17T07:06:14.570Z,12.43
2018-10-17T07:11:19.830Z,12.53
2018-10-17T07:16:26.889Z,12.53
2018-10-17T07:21:31.391Z,12.72
2018-10-17T07:26:35.771Z,13.06
2018-10-17T07:31:40.703Z,13.11
2018-10-17T07:36:45.189Z,13.21
2018-10-17T07:41:49.876Z,13.28
2018-10-17T07:46:54.175Z,13.46
2018-10-17T07:51:59.449Z,13.51
2018-10-17T07:57:03.809Z,13.81
2018-10-17T08:02:08.319Z,13.99
2018-10-17T08:07:12.745Z,14.16
2018-10-17T08:12:17.933Z,14.39
2018-10-17T08:17:22.365Z,14.40
2018-10-17T08:22:26.949Z,14.39
2018-10-17T08:27:31.596Z,14.37
2018-10-17T08:32:36.051Z,14.52
2018-10-17T08:37:41.302Z,14.52
2018-10-17T08:42:45.183Z,14.54
2018-10-17T08:47:49.555Z,14.70
2018-10-17T08:52:54.106Z,14.71
2018-10-17T08:57:58.921Z,14.94
2018-10-17T09:03:03.805Z,15.74
2018-10-17T09:08:08.261Z,16.51
2018-10-17T09:13:13.237Z,16.21
2018-10-17T09:18:19.071Z,16.29
2018-10-17T09:23:27.648Z,16.00
2018-10-17T09:28:32.186Z,15.95
2018-10-17T09:33:44.309Z,18.00
2018-10-17T09:38:49.093Z,19.56
2018-10-17T09:43:53.670Z,19.77
2018-10-17T09:48:58.311Z,19.96
2018-10-17T09:54:02.979Z,19.49
2018-10-17T09:59:07.813Z,18.91
2018-10-17T10:04:12.329Z,18.17
2018-10-17T10:14:31.560Z,17.49
2018-10-17T10:19:36.103Z,17.39
2018-10-17T10:24:41.146Z,17.30
2018-10-17T10:29:46.394Z,17.25
2018-10-17T10:34:50.802Z,17.24
2018-10-17T10:39:55.394Z,17.27
2018-10-17T10:44:59.552Z,17.35
2018-10-17T10:50:09.592Z,17.52
2018-10-17T10:55:13.788Z,17.62
2018-10-17T11:00:21.106Z,17.74
2018-10-17T11:05:26.353Z,17.91
2018-10-17T11:10:35.418Z,18.03
2018-10-17T11:15:40.582Z,18.04
2018-10-17T11:20:45.288Z,18.04
2018-10-17T11:25:49.654Z,18.06
2018-10-17T11:30:54.168Z,18.24
2018-10-17T11:35:58.660Z,18.20
2018-10-17T11:41:05.571Z,18.29
2018-10-17T11:46:14.269Z,18.46
2018-10-17T11:56:33.728Z,18.52
2018-10-17T12:01:45.118Z,18.62
2018-10-17T12:06:49.780Z,19.22
2018-10-17T12:11:54.744Z,20.39
2018-10-17T12:16:59.640Z,21.40
2018-10-17T12:22:04.425Z,21.91
2018-10-17T12:27:09.792Z,22.37
2018-10-17T12:32:14.509Z,22.82
2018-10-17T12:37:20.294Z,23.24
2018-10-17T12:42:26.094Z,23.76
2018-10-17T12:47:30.825Z,24.52
2018-10-17T12:52:35.317Z,24.57
2018-10-17T12:57:39.850Z,24.54
2018-10-17T13:02:49.589Z,24.51
2018-10-17T13:07:55.814Z,24.37
2018-10-17T13:13:00.790Z,24.99
2018-10-17T13:18:06.490Z,25.94
2018-10-17T13:23:11.627Z,25.94
2018-10-17T13:28:16.680Z,25.97
2018-10-17T13:33:23.029Z,25.12
2018-10-17T13:38:28.571Z,24.79
2018-10-17T13:43:36.647Z,24.90
2018-10-17T13:48:41.507Z,24.09
2018-10-17T13:53:46.905Z,23.42
2018-10-17T13:58:51.970Z,22.75
2018-10-17T14:03:57.608Z,22.12
2018-10-17T14:09:03.586Z,21.52
2018-10-17T14:14:08.802Z,21.06
2018-10-17T14:19:13.272Z,20.88
2018-10-17T14:24:18.685Z,20.68
2018-10-17T14:29:23.595Z,20.52
2018-10-17T14:34:28.380Z,20.34
2018-10-17T14:39:33.876Z,20.31
2018-10-17T14:44:38.666Z,20.19
2018-10-17T14:49:43.612Z,20.09
2018-10-17T14:54:47.947Z,20.04
2018-10-17T14:59:52.701Z,19.99
2018-10-17T15:04:57.497Z,19.95
2018-10-17T15:10:01.876Z,19.84
2018-10-17T15:15:06.886Z,19.72
2018-10-17T15:20:11.311Z,19.62
2018-10-17T15:25:16.024Z,19.58
2018-10-17T15:30:20.801Z,19.46
2018-10-17T15:35:25.302Z,19.38
2018-10-17T15:40:29.784Z,19.27
2018-10-17T15:45:34.110Z,19.23
2018-10-17T15:50:43.306Z,19.19
2018-10-17T15:55:48.009Z,19.13
2018-10-17T16:00:52.191Z,19.02
2018-10-17T16:05:56.601Z,18.94
2018-10-17T16:11:01.061Z,18.84
2018-10-17T16:16:05.907Z,18.74
2018-10-17T16:21:10.536Z,18.66
2018-10-17T16:26:15.412Z,18.59
2018-10-17T16:31:19.634Z,18.48
2018-10-17T16:36:25.184Z,18.42
2018-10-17T16:41:29.935Z,18.33
2018-10-17T16:46:34.446Z,18.30
2018-10-17T16:51:39.537Z,18.20
2018-10-17T16:56:43.963Z,18.08
2018-10-17T17:01:48.344Z,17.98
2018-10-17T17:06:52.769Z,17.82
2018-10-17T17:12:10.733Z,17.70
2018-10-17T17:17:15.239Z,17.60
2018-10-17T17:22:18.731Z,17.54
2018-10-17T17:27:22.280Z,17.41
2018-10-17T17:32:26.020Z,17.37
2018-10-17T17:37:29.684Z,17.27
2018-10-17T17:42:33.086Z,17.19
2018-10-17T17:47:37.308Z,17.14
2018-10-17T17:52:40.861Z,17.09
2018-10-17T17:57:44.913Z,17.05
2018-10-17T18:02:48.452Z,17.00
2018-10-17T18:07:51.898Z,16.93
2018-10-17T18:12:55.410Z,16.86
2018-10-17T18:17:58.916Z,16.78
2018-10-17T18:23:03.630Z,16.68
2018-10-17T18:28:08.237Z,16.66
2018-10-17T18:33:24.778Z,16.54
2018-10-17T18:38:28.320Z,16.47
2018-10-17T18:43:37.726Z,16.44
2018-10-17T18:48:41.252Z,16.42
2018-10-17T18:53:44.724Z,16.34
2018-10-17T18:58:48.380Z,16.27
2018-10-17T19:04:01.192Z,16.18
2018-10-17T19:09:08.052Z,16.13
2018-10-17T19:14:11.788Z,16.03
2018-10-17T19:19:15.685Z,16.01
2018-10-17T19:24:24.107Z,15.95
2018-10-17T19:29:27.815Z,15.87
2018-10-17T19:34:31.310Z,15.88
2018-10-17T19:39:35.191Z,15.82
2018-10-17T19:44:38.705Z,15.82
2018-10-17T19:49:43.049Z,15.74
2018-10-17T19:54:55.863Z,15.69
2018-10-17T19:59:59.813Z,15.70
2018-10-17T20:05:03.453Z,15.56
2018-10-17T20:10:07.675Z,15.49
2018-10-17T20:15:12.289Z,15.44
2018-10-17T20:20:22.989Z,15.37
2018-10-17T20:25:26.670Z,15.29
2018-10-17T20:30:40.353Z,15.25
2018-10-17T20:35:43.821Z,15.20
2018-10-17T20:40:47.452Z,15.26
2018-10-17T20:45:51.399Z,15.20
2018-10-17T20:51:04.223Z,15.15
2018-10-17T20:56:07.774Z,15.18
2018-10-17T21:01:11.120Z,15.09
2018-10-17T21:06:14.879Z,15.11
2018-10-17T21:11:18.613Z,15.02
2018-10-17T21:16:22.035Z,14.97
2018-10-17T21:21:26.388Z,14.94
2018-10-17T21:26:30.187Z,14.87
2018-10-17T21:31:47.940Z,14.89
2018-10-17T21:36:51.714Z,14.79
2018-10-17T21:41:55.861Z,14.79
2018-10-17T21:46:59.488Z,14.73
2018-10-17T21:57:30.388Z,14.55
2018-10-17T22:02:39.154Z,14.56
2018-10-17T22:07:43.422Z,14.56
2018-10-17T22:12:56.139Z,14.55
2018-10-17T22:17:59.639Z,14.48
2018-10-17T22:23:03.220Z,14.50
2018-10-17T22:28:06.590Z,14.38
2018-10-17T22:33:10.205Z,14.34
2018-10-17T22:38:13.676Z,14.32
2018-10-17T22:43:17.257Z,14.27
2018-10-17T22:48:22.447Z,14.26
2018-10-17T22:53:26.664Z,14.20
2018-10-17T22:58:31.159Z,14.19
2018-10-17T23:03:35.106Z,14.17
2018-10-17T23:08:38.873Z,14.17
2018-10-17T23:13:42.419Z,14.07
2018-10-17T23:18:47.057Z,14.04
2018-10-17T23:23:51.283Z,14.03
2018-10-17T23:28:54.934Z,14.06
2018-10-17T23:33:59.041Z,13.97
2018-10-17T23:39:02.745Z,13.90
2018-10-17T23:44:06.468Z,13.86
2018-10-17T23:49:10.991Z,13.84
2018-10-17T23:54:15.427Z,13.80
2018-10-17T23:59:18.829Z,13.77
